createdAt,value
2016-11-28T00:00:13.261Z,1015.59
2016-11-28T00:01:13.275Z,1015.7
2016-11-28T00:02:13.291Z,1015.63
2016-11-28T00:03:13.304Z,1015.67
2016-11-28T00:04:13.320Z,1015.7
2016-11-28T00:05:13.334Z,1015.71
2016-11-28T00:06:13.350Z,1015.75
2016-11-28T00:07:13.366Z,1015.71
2016-11-28T00:08:13.383Z,1015.78
2016-11-28T00:09:13.396Z,1015.69
2016-11-28T00:10:13.412Z,1015.73
2016-11-28T00:11:13.428Z,1015.79
2016-11-28T00:12:13.444Z,1015.78
2016-11-28T00:13:13.458Z,1015.69
2016-11-28T00:14:13.475Z,1015.8
2016-11-28T00:15:13.490Z,1015.78
2016-11-28T00:16:13.504Z,1015.75
2016-11-28T00:17:13.521Z,1015.69
2016-11-28T00:18:13.536Z,1015.76
2016-11-28T00:19:13.551Z,1015.73
2016-11-28T00:20:13.567Z,1015.79
2016-11-28T00:21:13.593Z,1015.79
2016-11-28T00:22:13.596Z,1015.77
2016-11-28T00:23:13.611Z,1015.8
2016-11-28T00:24:13.628Z,1015.82
2016-11-28T00:25:13.642Z,1015.77
2016-11-28T00:26:13.656Z,1015.81
2016-11-28T00:28:13.689Z,1015.8
2016-11-28T00:29:13.705Z,1015.81
2016-11-28T00:30:13.719Z,1015.82
2016-11-28T00:31:13.733Z,1015.79
2016-11-28T00:32:13.748Z,1015.84
2016-11-28T00:33:13.766Z,1015.85
2016-11-28T00:34:13.778Z,1015.88
2016-11-28T00:35:13.796Z,1015.9
2016-11-28T00:36:13.811Z,1015.98
2016-11-28T00:37:13.824Z,1015.92
2016-11-28T00:38:13.841Z,1015.93
2016-11-28T00:39:13.857Z,1015.99
2016-11-28T00:40:13.870Z,1015.97
2016-11-28T00:41:13.885Z,1016.01
2016-11-28T00:42:13.902Z,1016
2016-11-28T00:44:13.931Z,1016.04
2016-11-28T00:45:13.945Z,1016.04
2016-11-28T00:46:13.962Z,1016.06
2016-11-28T00:47:13.978Z,1016.06
2016-11-28T00:48:13.991Z,1016.06
2016-11-28T00:49:14.006Z,1016.06
2016-11-28T00:50:14.022Z,1016.1
2016-11-28T00:51:14.039Z,1016.07
2016-11-28T00:52:14.054Z,1016.13
2016-11-28T00:53:14.069Z,1016.11
2016-11-28T00:54:14.084Z,1016.14
2016-11-28T00:55:14.100Z,1016.1
2016-11-28T00:56:14.112Z,1016.1
2016-11-28T00:57:14.128Z,1016.11
2016-11-28T00:58:14.144Z,1016.12
2016-11-28T01:00:14.174Z,1016.13
2016-11-28T01:01:14.187Z,1016.16
2016-11-28T01:02:14.202Z,1016.16
2016-11-28T01:03:14.217Z,1016.18
2016-11-28T01:04:14.234Z,1016.21
2016-11-28T01:05:14.247Z,1016.21
2016-11-28T01:06:14.262Z,1016.22
2016-11-28T01:07:14.277Z,1016.28
2016-11-28T01:08:14.294Z,1016.24
2016-11-28T01:09:14.309Z,1016.23
2016-11-28T01:10:14.321Z,1016.19
2016-11-28T01:11:14.337Z,1016.26
2016-11-28T01:12:14.354Z,1016.26
2016-11-28T01:13:14.369Z,1016.21
2016-11-28T01:14:14.381Z,1016.34
2016-11-28T01:16:14.411Z,1016.31
2016-11-28T01:17:14.427Z,1016.32
2016-11-28T01:18:14.442Z,1016.33
2016-11-28T01:19:14.456Z,1016.29
2016-11-28T01:20:14.477Z,1016.3
2016-11-28T01:21:14.487Z,1016.33
2016-11-28T01:22:14.501Z,1016.34
2016-11-28T01:23:14.516Z,1016.35
2016-11-28T01:24:14.533Z,1016.39
2016-11-28T01:25:14.548Z,1016.38
2016-11-28T01:26:14.562Z,1016.36
2016-11-28T01:27:14.575Z,1016.37
2016-11-28T01:28:14.590Z,1016.36
2016-11-28T01:29:14.608Z,1016.35
2016-11-28T01:31:14.636Z,1016.38
2016-11-28T01:32:14.653Z,1016.35
2016-11-28T01:33:14.665Z,1016.33
2016-11-28T01:34:14.681Z,1016.36
2016-11-28T01:35:14.696Z,1016.34
2016-11-28T01:36:14.712Z,1016.36
2016-11-28T01:37:14.725Z,1016.42
2016-11-28T01:38:14.740Z,1016.4
2016-11-28T01:39:14.756Z,1016.42
2016-11-28T01:40:14.769Z,1016.38
2016-11-28T01:41:14.787Z,1016.4
2016-11-28T01:42:14.800Z,1016.46
2016-11-28T01:43:14.816Z,1016.39
2016-11-28T01:44:14.835Z,1016.36
2016-11-28T01:45:14.846Z,1016.35
2016-11-28T01:46:14.860Z,1016.35
2016-11-28T01:47:14.875Z,1016.39
2016-11-28T01:48:14.890Z,1016.4
2016-11-28T01:49:14.906Z,1016.41
2016-11-28T01:50:14.920Z,1016.4
2016-11-28T01:51:14.935Z,1016.37
2016-11-28T01:52:14.948Z,1016.35
2016-11-28T01:53:14.964Z,1016.39
2016-11-28T01:54:14.979Z,1016.39
2016-11-28T01:55:14.992Z,1016.42
2016-11-28T01:56:15.008Z,1016.4
2016-11-28T01:57:15.023Z,1016.41
2016-11-28T01:58:15.037Z,1016.43
2016-11-28T01:59:15.052Z,1016.42
2016-11-28T02:00:15.067Z,1016.45
2016-11-28T02:01:15.083Z,1016.42
2016-11-28T02:03:15.113Z,1016.49
2016-11-28T02:04:15.127Z,1016.49
2016-11-28T02:05:15.140Z,1016.49
2016-11-28T02:06:15.156Z,1016.49
2016-11-28T02:07:15.171Z,1016.47
2016-11-28T02:08:15.186Z,1016.52
2016-11-28T02:09:15.202Z,1016.54
2016-11-28T02:10:15.217Z,1016.58
2016-11-28T02:11:15.230Z,1016.54
2016-11-28T02:12:15.245Z,1016.55
2016-11-28T02:13:15.262Z,1016.55
2016-11-28T02:14:15.275Z,1016.59
2016-11-28T02:15:15.290Z,1016.59
2016-11-28T02:16:15.306Z,1016.62
2016-11-28T02:17:15.319Z,1016.61
2016-11-28T02:19:15.349Z,1016.63
2016-11-28T02:20:15.365Z,1016.58
2016-11-28T02:21:15.380Z,1016.64
2016-11-28T02:22:15.393Z,1016.64
2016-11-28T02:23:15.407Z,1016.64
2016-11-28T02:24:15.424Z,1016.68
2016-11-28T02:25:15.440Z,1016.64
2016-11-28T02:26:15.454Z,1016.69
2016-11-28T02:27:15.467Z,1016.6
2016-11-28T02:28:15.482Z,1016.66
2016-11-28T02:29:15.497Z,1016.73
2016-11-28T02:30:15.514Z,1016.69
2016-11-28T02:31:15.527Z,1016.71
2016-11-28T02:32:15.543Z,1016.67
2016-11-28T02:33:15.556Z,1016.69
2016-11-28T02:35:15.586Z,1016.75
2016-11-28T02:36:15.600Z,1016.75
2016-11-28T02:37:15.615Z,1016.78
2016-11-28T02:38:15.629Z,1016.75
2016-11-28T02:39:15.646Z,1016.78
2016-11-28T02:40:15.661Z,1016.76
2016-11-28T02:41:15.676Z,1016.79
2016-11-28T02:42:15.687Z,1016.81
2016-11-28T02:43:15.703Z,1016.8
2016-11-28T02:44:15.718Z,1016.8
2016-11-28T02:45:15.732Z,1016.83
2016-11-28T02:46:15.747Z,1016.81
2016-11-28T02:47:15.762Z,1016.85
2016-11-28T02:48:15.777Z,1016.85
2016-11-28T02:49:15.793Z,1016.91
2016-11-28T02:51:15.823Z,1016.92
2016-11-28T02:52:15.835Z,1016.92
2016-11-28T02:53:15.849Z,1017
2016-11-28T02:54:15.867Z,1016.93
2016-11-28T02:55:15.880Z,1016.93
2016-11-28T02:56:15.894Z,1016.98
2016-11-28T02:57:15.911Z,1016.99
2016-11-28T02:58:15.926Z,1017.04
2016-11-28T02:59:15.941Z,1017
2016-11-28T03:00:15.955Z,1016.99
2016-11-28T03:01:15.967Z,1017.05
2016-11-28T03:02:15.983Z,1017
2016-11-28T03:03:16.000Z,1017.03
2016-11-28T03:04:16.013Z,1017.04
2016-11-28T03:06:16.045Z,1017.09
2016-11-28T03:07:16.058Z,1017.13
2016-11-28T03:08:16.074Z,1017.17
2016-11-28T03:09:16.086Z,1017.12
2016-11-28T03:10:16.103Z,1017.15
2016-11-28T03:11:16.115Z,1017.17
2016-11-28T03:12:16.130Z,1017.19
2016-11-28T03:13:16.147Z,1017.18
2016-11-28T03:14:16.169Z,1017.16
2016-11-28T03:15:16.174Z,1017.22
2016-11-28T03:16:16.241Z,1017.16
2016-11-28T03:17:16.204Z,1017.23
2016-11-28T03:18:16.218Z,1017.25
2016-11-28T03:19:16.232Z,1017.26
2016-11-28T03:20:16.249Z,1017.34
2016-11-28T03:21:16.262Z,1017.3
2016-11-28T03:22:16.280Z,1017.32
2016-11-28T03:23:16.291Z,1017.35
2016-11-28T03:24:16.308Z,1017.39
2016-11-28T03:25:16.320Z,1017.38
2016-11-28T03:26:16.334Z,1017.42
2016-11-28T03:27:16.350Z,1017.44
2016-11-28T03:28:16.364Z,1017.4
2016-11-28T03:29:16.378Z,1017.42
2016-11-28T03:30:16.393Z,1017.45
2016-11-28T03:31:16.408Z,1017.53
2016-11-28T03:32:16.423Z,1017.51
2016-11-28T03:33:16.437Z,1017.58
2016-11-28T03:34:16.452Z,1017.59
2016-11-28T03:35:16.469Z,1017.6
2016-11-28T03:36:16.483Z,1017.59
2016-11-28T03:38:16.513Z,1017.65
2016-11-28T03:39:16.525Z,1017.66
2016-11-28T03:40:16.541Z,1017.68
2016-11-28T03:41:16.556Z,1017.72
2016-11-28T03:42:16.568Z,1017.73
2016-11-28T03:43:16.584Z,1017.72
2016-11-28T03:44:16.600Z,1017.72
2016-11-28T03:45:16.614Z,1017.7
2016-11-28T03:46:16.629Z,1017.77
2016-11-28T03:47:16.641Z,1017.79
2016-11-28T03:48:16.658Z,1017.74
2016-11-28T03:49:16.670Z,1017.8
2016-11-28T03:50:16.688Z,1017.78
2016-11-28T03:51:16.703Z,1017.82
2016-11-28T03:52:16.720Z,1017.82
2016-11-28T03:54:16.744Z,1017.83
2016-11-28T03:55:16.760Z,1017.84
2016-11-28T03:56:16.773Z,1017.83
2016-11-28T03:57:16.789Z,1017.86
2016-11-28T03:58:16.803Z,1017.85
2016-11-28T03:59:16.816Z,1017.85
2016-11-28T04:00:16.831Z,1017.87
2016-11-28T04:01:16.846Z,1017.89
2016-11-28T04:02:16.860Z,1017.86
2016-11-28T04:03:16.874Z,1017.88
2016-11-28T04:04:16.889Z,1017.88
2016-11-28T04:05:16.906Z,1017.9
2016-11-28T04:06:16.918Z,1017.91
2016-11-28T04:07:16.933Z,1017.91
2016-11-28T04:08:16.949Z,1017.93
2016-11-28T04:10:16.976Z,1017.89
2016-11-28T04:11:16.992Z,1017.92
2016-11-28T04:12:17.005Z,1017.95
2016-11-28T04:13:17.021Z,1017.95
2016-11-28T04:14:17.036Z,1017.98
2016-11-28T04:15:17.051Z,1017.98
2016-11-28T04:16:17.065Z,1017.99
2016-11-28T04:17:17.079Z,1018
2016-11-28T04:18:17.092Z,1018.03
2016-11-28T04:19:17.110Z,1018.06
2016-11-28T04:20:17.123Z,1018.06
2016-11-28T04:21:17.138Z,1018.08
2016-11-28T04:22:17.152Z,1018.09
2016-11-28T04:23:17.165Z,1018.07
2016-11-28T04:24:17.179Z,1018.15
2016-11-28T04:26:17.208Z,1018.17
2016-11-28T04:27:17.223Z,1018.15
2016-11-28T04:28:17.239Z,1018.22
2016-11-28T04:29:17.253Z,1018.19
2016-11-28T04:30:17.268Z,1018.19
2016-11-28T04:31:17.280Z,1018.22
2016-11-28T04:32:17.297Z,1018.23
2016-11-28T04:33:17.311Z,1018.22
2016-11-28T04:34:17.326Z,1018.27
2016-11-28T04:35:17.338Z,1018.23
2016-11-28T04:36:17.352Z,1018.26
2016-11-28T04:37:17.367Z,1018.28
2016-11-28T04:38:17.382Z,1018.31
2016-11-28T04:39:17.398Z,1018.37
2016-11-28T04:41:17.426Z,1018.4
2016-11-28T04:42:17.439Z,1018.41
2016-11-28T04:43:17.456Z,1018.43
2016-11-28T04:44:17.471Z,1018.47
2016-11-28T04:45:17.484Z,1018.44
2016-11-28T04:46:17.497Z,1018.47
2016-11-28T04:47:17.511Z,1018.48
2016-11-28T04:48:17.576Z,1018.49
2016-11-28T04:49:17.542Z,1018.52
2016-11-28T04:50:17.555Z,1018.5
2016-11-28T04:51:17.573Z,1018.5
2016-11-28T04:52:17.586Z,1018.54
2016-11-28T04:53:17.600Z,1018.58
2016-11-28T04:54:17.612Z,1018.61
2016-11-28T04:55:17.630Z,1018.56
2016-11-28T04:56:17.641Z,1018.61
2016-11-28T04:57:17.657Z,1018.58
2016-11-28T04:58:17.670Z,1018.62
2016-11-28T04:59:17.685Z,1018.63
2016-11-28T05:00:17.700Z,1018.64
2016-11-28T05:01:17.715Z,1018.65
2016-11-28T05:02:17.728Z,1018.66
2016-11-28T05:03:17.742Z,1018.68
2016-11-28T05:04:17.763Z,1018.69
2016-11-28T05:05:17.772Z,1018.66
2016-11-28T05:06:17.785Z,1018.67
2016-11-28T05:07:17.801Z,1018.69
2016-11-28T05:08:17.814Z,1018.68
2016-11-28T05:09:17.830Z,1018.73
2016-11-28T05:10:17.843Z,1018.69
2016-11-28T05:11:17.857Z,1018.74
2016-11-28T05:13:17.913Z,1018.78
2016-11-28T05:14:17.903Z,1018.77
2016-11-28T05:15:17.916Z,1018.72
2016-11-28T05:16:17.929Z,1018.77
2016-11-28T05:17:17.944Z,1018.82
2016-11-28T05:18:17.958Z,1018.85
2016-11-28T05:19:17.972Z,1018.87
2016-11-28T05:20:17.987Z,1018.85
2016-11-28T05:21:18.004Z,1018.85
2016-11-28T05:22:18.017Z,1018.85
2016-11-28T05:23:18.030Z,1018.83
2016-11-28T05:24:18.046Z,1018.86
2016-11-28T05:25:18.061Z,1018.91
2016-11-28T05:26:18.074Z,1018.84
2016-11-28T05:27:18.089Z,1018.87
2016-11-28T05:29:18.119Z,1018.9
2016-11-28T05:30:18.130Z,1018.9
2016-11-28T05:31:18.147Z,1018.93
2016-11-28T05:32:18.159Z,1018.94
2016-11-28T05:33:18.176Z,1018.95
2016-11-28T05:34:18.189Z,1018.93
2016-11-28T05:35:18.204Z,1018.96
2016-11-28T05:36:18.219Z,1018.94
2016-11-28T05:37:18.232Z,1019
2016-11-28T05:38:18.245Z,1018.99
2016-11-28T05:39:18.260Z,1019.03
2016-11-28T05:40:18.275Z,1019.06
2016-11-28T05:41:18.290Z,1019.02
2016-11-28T05:42:18.302Z,1018.98
2016-11-28T05:43:18.317Z,1019.03
2016-11-28T05:45:18.347Z,1019.05
2016-11-28T05:46:18.362Z,1019.14
2016-11-28T05:47:18.375Z,1019.13
2016-11-28T05:48:18.388Z,1019.21
2016-11-28T05:49:18.403Z,1019.25
2016-11-28T05:50:18.418Z,1019.2
2016-11-28T05:51:18.434Z,1019.28
2016-11-28T05:52:18.445Z,1019.25
2016-11-28T05:53:18.459Z,1019.24
2016-11-28T05:54:18.478Z,1019.26
2016-11-28T05:55:18.490Z,1019.29
2016-11-28T05:56:18.505Z,1019.32
2016-11-28T05:57:18.519Z,1019.28
2016-11-28T05:58:18.534Z,1019.35
2016-11-28T05:59:18.548Z,1019.35
2016-11-28T06:01:18.577Z,1019.36
2016-11-28T06:02:18.591Z,1019.45
2016-11-28T06:03:18.605Z,1019.48
2016-11-28T06:04:18.617Z,1019.51
2016-11-28T06:05:18.634Z,1019.54
2016-11-28T06:06:18.645Z,1019.56
2016-11-28T06:07:18.663Z,1019.59
2016-11-28T06:08:18.675Z,1019.61
2016-11-28T06:09:18.689Z,1019.56
2016-11-28T06:10:18.705Z,1019.63
2016-11-28T06:11:18.717Z,1019.64
2016-11-28T06:12:18.731Z,1019.68
2016-11-28T06:13:18.746Z,1019.71
2016-11-28T06:14:18.761Z,1019.68
2016-11-28T06:16:18.790Z,1019.78
2016-11-28T06:17:18.805Z,1019.76
2016-11-28T06:18:18.818Z,1019.84
2016-11-28T06:19:18.835Z,1019.83
2016-11-28T06:20:18.849Z,1019.84
2016-11-28T06:21:18.860Z,1019.87
2016-11-28T06:22:18.876Z,1019.91
2016-11-28T06:23:18.890Z,1019.94
2016-11-28T06:24:18.903Z,1019.91
2016-11-28T06:25:18.918Z,1019.91
2016-11-28T06:26:18.932Z,1019.92
2016-11-28T06:27:18.947Z,1019.99
2016-11-28T06:28:18.961Z,1019.97
2016-11-28T06:29:18.974Z,1020.01
2016-11-28T06:30:18.992Z,1019.98
2016-11-28T06:31:19.003Z,1020.04
2016-11-28T06:32:19.017Z,1019.99
2016-11-28T06:33:19.032Z,1020.01
2016-11-28T06:34:19.046Z,1020.01
2016-11-28T06:35:19.060Z,1020.03
2016-11-28T06:36:19.074Z,1020.01
2016-11-28T06:37:19.089Z,1020.02
2016-11-28T06:38:19.103Z,1020.07
2016-11-28T06:39:19.119Z,1020.04
2016-11-28T06:40:19.134Z,1020.08
2016-11-28T06:41:19.146Z,1020.11
2016-11-28T06:42:19.161Z,1020.05
2016-11-28T06:43:19.174Z,1020.1
2016-11-28T06:44:19.191Z,1020.15
2016-11-28T06:45:19.204Z,1020.11
2016-11-28T06:46:19.216Z,1020.09
2016-11-28T06:48:19.246Z,1020.17
2016-11-28T06:49:19.310Z,1020.16
2016-11-28T06:50:19.273Z,1020.13
2016-11-28T06:51:19.291Z,1020.14
2016-11-28T06:52:19.303Z,1020.19
2016-11-28T06:53:19.319Z,1020.22
2016-11-28T06:54:19.331Z,1020.25
2016-11-28T06:55:19.345Z,1020.27
2016-11-28T06:56:19.360Z,1020.33
2016-11-28T06:57:19.374Z,1020.34
2016-11-28T06:58:19.390Z,1020.4
2016-11-28T06:59:19.403Z,1020.38
2016-11-28T07:00:19.417Z,1020.41
2016-11-28T07:01:19.431Z,1020.42
2016-11-28T07:02:19.447Z,1020.45
2016-11-28T07:04:19.477Z,1020.49
2016-11-28T07:05:19.488Z,1020.43
2016-11-28T07:06:19.505Z,1020.48
2016-11-28T07:07:19.517Z,1020.56
2016-11-28T07:08:19.531Z,1020.6
2016-11-28T07:09:19.545Z,1020.63
2016-11-28T07:10:19.560Z,1020.61
2016-11-28T07:11:19.576Z,1020.65
2016-11-28T07:12:19.590Z,1020.61
2016-11-28T07:13:19.602Z,1020.63
2016-11-28T07:14:19.619Z,1020.65
2016-11-28T07:15:19.633Z,1020.67
2016-11-28T07:16:19.647Z,1020.74
2016-11-28T07:17:19.663Z,1020.73
2016-11-28T07:18:19.677Z,1020.67
2016-11-28T07:20:19.705Z,1020.82
2016-11-28T07:21:19.717Z,1020.84
2016-11-28T07:22:19.732Z,1020.85
2016-11-28T07:23:19.746Z,1020.9
2016-11-28T07:24:19.762Z,1020.92
2016-11-28T07:25:19.777Z,1020.97
2016-11-28T07:26:19.790Z,1020.93
2016-11-28T07:27:19.805Z,1020.93
2016-11-28T07:28:19.820Z,1020.97
2016-11-28T07:29:19.833Z,1020.99
2016-11-28T07:30:19.846Z,1021
2016-11-28T07:31:19.863Z,1021.04
2016-11-28T07:32:19.877Z,1020.96
2016-11-28T07:33:19.890Z,1020.98
2016-11-28T07:34:19.906Z,1021.02
2016-11-28T07:36:19.936Z,1021.07
2016-11-28T07:37:19.951Z,1021.05
2016-11-28T07:38:19.966Z,1021.1
2016-11-28T07:39:19.979Z,1021.08
2016-11-28T07:40:19.992Z,1021.09
2016-11-28T07:41:20.006Z,1021.03
2016-11-28T07:42:20.021Z,1021.02
2016-11-28T07:43:20.036Z,1021.06
2016-11-28T07:44:20.052Z,1021.08
2016-11-28T07:45:20.064Z,1021.06
2016-11-28T07:46:20.081Z,1021.09
2016-11-28T07:47:20.096Z,1021.16
2016-11-28T07:48:20.111Z,1021.14
2016-11-28T07:49:20.123Z,1021.22
2016-11-28T07:51:20.156Z,1021.32
2016-11-28T07:52:20.167Z,1021.33
2016-11-28T07:53:20.184Z,1021.33
2016-11-28T07:54:20.199Z,1021.3
2016-11-28T07:55:20.213Z,1021.34
2016-11-28T07:56:20.226Z,1021.34
2016-11-28T07:57:20.241Z,1021.37
2016-11-28T07:58:20.258Z,1021.4
2016-11-28T07:59:20.270Z,1021.37
2016-11-28T08:00:20.285Z,1021.34
2016-11-28T08:01:20.300Z,1021.34
2016-11-28T08:02:20.315Z,1021.39
2016-11-28T08:03:20.331Z,1021.37
2016-11-28T08:04:20.346Z,1021.44
2016-11-28T08:05:20.359Z,1021.44
2016-11-28T08:06:20.374Z,1021.46
2016-11-28T08:07:20.391Z,1021.51
2016-11-28T08:08:20.404Z,1021.56
2016-11-28T08:09:20.422Z,1021.53
2016-11-28T08:10:20.435Z,1021.51
2016-11-28T08:11:20.448Z,1021.54
2016-11-28T08:12:20.471Z,1021.55
2016-11-28T08:13:20.480Z,1021.56
2016-11-28T08:14:20.492Z,1021.56
2016-11-28T08:15:20.507Z,1021.54
2016-11-28T08:16:20.525Z,1021.6
2016-11-28T08:17:20.538Z,1021.6
2016-11-28T08:18:20.554Z,1021.64
2016-11-28T08:19:20.569Z,1021.7
2016-11-28T08:20:20.585Z,1021.71
2016-11-28T08:21:20.597Z,1021.74
2016-11-28T08:23:20.629Z,1021.77
2016-11-28T08:24:20.644Z,1021.84
2016-11-28T08:25:20.658Z,1021.77
2016-11-28T08:26:20.671Z,1021.79
2016-11-28T08:27:20.689Z,1021.82
2016-11-28T08:28:20.704Z,1021.85
2016-11-28T08:29:20.716Z,1021.9
2016-11-28T08:30:20.731Z,1021.87
2016-11-28T08:31:20.748Z,1021.85
2016-11-28T08:32:20.763Z,1021.84
2016-11-28T08:33:20.779Z,1021.9
2016-11-28T08:34:20.793Z,1021.89
2016-11-28T08:35:20.807Z,1021.91
2016-11-28T08:36:20.822Z,1021.91
2016-11-28T08:37:20.837Z,1021.9
2016-11-28T08:39:20.868Z,1021.99
2016-11-28T08:40:20.886Z,1022.01
2016-11-28T08:41:20.900Z,1022.02
2016-11-28T08:42:20.915Z,1022.03
2016-11-28T08:43:20.928Z,1022.05
2016-11-28T08:44:20.946Z,1022.05
2016-11-28T08:45:20.959Z,1022.05
2016-11-28T08:46:20.974Z,1022.09
2016-11-28T08:47:20.988Z,1022.14
2016-11-28T08:48:21.004Z,1022.16
2016-11-28T08:49:21.021Z,1022.11
2016-11-28T08:50:21.037Z,1022.12
2016-11-28T08:51:21.051Z,1022.17
2016-11-28T08:52:21.074Z,1022.15
2016-11-28T08:53:21.082Z,1022.18
2016-11-28T08:55:21.110Z,1022.24
2016-11-28T08:56:21.128Z,1022.25
2016-11-28T08:57:21.143Z,1022.24
2016-11-28T08:58:21.158Z,1022.23
2016-11-28T08:59:21.171Z,1022.26
2016-11-28T09:00:21.187Z,1022.29
2016-11-28T09:01:21.204Z,1022.3
2016-11-28T09:02:21.216Z,1022.34
2016-11-28T09:03:21.232Z,1022.38
2016-11-28T09:04:21.248Z,1022.45
2016-11-28T09:05:21.264Z,1022.5
2016-11-28T09:06:21.278Z,1022.47
2016-11-28T09:07:21.295Z,1022.47
2016-11-28T09:08:21.310Z,1022.46
2016-11-28T09:09:21.323Z,1022.5
2016-11-28T09:11:21.357Z,1022.57
2016-11-28T09:12:21.370Z,1022.64
2016-11-28T09:13:21.387Z,1022.55
2016-11-28T09:14:21.400Z,1022.57
2016-11-28T09:15:21.416Z,1022.55
2016-11-28T09:16:21.430Z,1022.61
2016-11-28T09:17:21.448Z,1022.64
2016-11-28T09:18:21.613Z,1022.66
2016-11-28T09:19:21.477Z,1022.68
2016-11-28T09:20:21.495Z,1022.7
2016-11-28T09:21:21.509Z,1022.76
2016-11-28T09:22:21.525Z,1022.74
2016-11-28T09:23:21.541Z,1022.73
2016-11-28T09:24:21.556Z,1022.77
2016-11-28T09:26:21.588Z,1022.75
2016-11-28T09:27:21.600Z,1022.82
2016-11-28T09:28:21.618Z,1022.78
2016-11-28T09:29:21.633Z,1022.8
2016-11-28T09:30:21.649Z,1022.78
2016-11-28T09:31:21.661Z,1022.87
2016-11-28T09:32:21.678Z,1022.89
2016-11-28T09:33:21.693Z,1022.87
2016-11-28T09:34:21.708Z,1022.89
2016-11-28T09:35:21.726Z,1022.89
2016-11-28T09:36:21.741Z,1022.87
2016-11-28T09:37:21.757Z,1022.89
2016-11-28T09:38:21.771Z,1022.87
2016-11-28T09:39:21.785Z,1022.89
2016-11-28T09:40:21.801Z,1022.94
2016-11-28T09:41:21.816Z,1022.9
2016-11-28T09:42:21.831Z,1022.9
2016-11-28T09:43:21.847Z,1022.96
2016-11-28T09:44:21.865Z,1022.94
2016-11-28T09:45:21.878Z,1022.91
2016-11-28T09:46:21.896Z,1022.87
2016-11-28T09:47:21.912Z,1022.97
2016-11-28T09:48:21.926Z,1022.93
2016-11-28T09:49:21.943Z,1022.96
2016-11-28T09:50:22.009Z,1022.96
2016-11-28T09:51:21.974Z,1023
2016-11-28T09:52:21.991Z,1023.01
2016-11-28T09:53:22.005Z,1023
2016-11-28T09:54:22.020Z,1022.99
2016-11-28T09:55:22.037Z,1022.97
2016-11-28T09:56:22.051Z,1023
2016-11-28T09:58:22.081Z,1023.05
2016-11-28T09:59:22.097Z,1023.04
2016-11-28T10:00:22.112Z,1023.06
2016-11-28T10:01:22.130Z,1023.02
2016-11-28T10:02:22.146Z,1023.04
2016-11-28T10:03:22.161Z,1023.09
2016-11-28T10:04:22.176Z,1023
2016-11-28T10:05:22.192Z,1023.11
2016-11-28T10:06:22.206Z,1023.12
2016-11-28T10:07:22.222Z,1023.15
2016-11-28T10:08:22.237Z,1023.16
2016-11-28T10:09:22.255Z,1023.17
2016-11-28T10:10:22.271Z,1023.18
2016-11-28T10:11:22.283Z,1023.23
2016-11-28T10:12:22.300Z,1023.24
2016-11-28T10:14:22.331Z,1023.26
2016-11-28T10:15:22.348Z,1023.22
2016-11-28T10:16:22.364Z,1023.25
2016-11-28T10:17:22.380Z,1023.26
2016-11-28T10:18:22.394Z,1023.32
2016-11-28T10:19:22.409Z,1023.34
2016-11-28T10:20:22.427Z,1023.32
2016-11-28T10:21:22.441Z,1023.31
2016-11-28T10:22:22.459Z,1023.39
2016-11-28T10:23:22.474Z,1023.38
2016-11-28T10:24:22.490Z,1023.39
2016-11-28T10:25:22.506Z,1023.41
2016-11-28T10:26:22.519Z,1023.4
2016-11-28T10:27:22.535Z,1023.42
2016-11-28T10:28:22.551Z,1023.4
2016-11-28T10:30:22.584Z,1023.44
2016-11-28T10:31:22.601Z,1023.43
2016-11-28T10:32:22.619Z,1023.4
2016-11-28T10:33:22.632Z,1023.47
2016-11-28T10:34:22.646Z,1023.46
2016-11-28T10:35:22.664Z,1023.45
2016-11-28T10:36:22.678Z,1023.51
2016-11-28T10:37:22.693Z,1023.49
2016-11-28T10:38:22.709Z,1023.5
2016-11-28T10:39:22.725Z,1023.49
2016-11-28T10:40:22.742Z,1023.48
2016-11-28T10:41:22.758Z,1023.49
2016-11-28T10:42:22.772Z,1023.51
2016-11-28T10:43:22.790Z,1023.51
2016-11-28T10:44:22.805Z,1023.57
2016-11-28T10:46:22.836Z,1023.56
2016-11-28T10:47:22.854Z,1023.61
2016-11-28T10:48:22.869Z,1023.63
2016-11-28T10:49:22.885Z,1023.64
2016-11-28T10:50:22.901Z,1023.66
2016-11-28T10:51:22.930Z,1023.73
2016-11-28T10:52:22.932Z,1023.7
2016-11-28T10:53:22.949Z,1023.69
2016-11-28T10:54:22.965Z,1023.7
2016-11-28T10:55:22.979Z,1023.71
2016-11-28T10:56:22.996Z,1023.72
2016-11-28T10:57:23.013Z,1023.68
2016-11-28T10:58:23.029Z,1023.69
2016-11-28T10:59:23.043Z,1023.65
2016-11-28T11:01:23.078Z,1023.69
2016-11-28T11:02:23.091Z,1023.69
2016-11-28T11:03:23.107Z,1023.74
2016-11-28T11:04:23.125Z,1023.73
2016-11-28T11:05:23.140Z,1023.72
2016-11-28T11:06:23.155Z,1023.74
2016-11-28T11:07:23.174Z,1023.68
2016-11-28T11:08:23.190Z,1023.69
2016-11-28T11:09:23.203Z,1023.74
2016-11-28T11:10:23.220Z,1023.7
2016-11-28T11:11:23.236Z,1023.62
2016-11-28T11:12:23.254Z,1023.71
2016-11-28T11:13:23.268Z,1023.67
2016-11-28T11:14:23.284Z,1023.74
2016-11-28T11:15:23.303Z,1023.69
2016-11-28T11:16:23.318Z,1023.73
2016-11-28T11:17:23.333Z,1023.74
2016-11-28T11:18:23.349Z,1023.76
2016-11-28T11:19:23.366Z,1023.74
2016-11-28T11:20:23.384Z,1023.81
2016-11-28T11:21:23.398Z,1023.77
2016-11-28T11:22:23.417Z,1023.87
2016-11-28T11:23:23.431Z,1023.82
2016-11-28T11:24:23.447Z,1023.84
2016-11-28T11:25:23.466Z,1023.86
2016-11-28T11:26:23.480Z,1023.78
2016-11-28T11:27:23.497Z,1023.85
2016-11-28T11:28:23.514Z,1023.83
2016-11-28T11:29:23.531Z,1023.88
2016-11-28T11:30:23.546Z,1023.84
2016-11-28T11:31:23.563Z,1023.84
2016-11-28T11:33:23.595Z,1023.89
2016-11-28T11:34:23.612Z,1023.91
2016-11-28T11:35:23.628Z,1023.83
2016-11-28T11:36:23.647Z,1023.95
2016-11-28T11:37:23.662Z,1023.91
2016-11-28T11:38:23.680Z,1023.92
2016-11-28T11:39:23.696Z,1023.94
2016-11-28T11:40:23.711Z,1024.03
2016-11-28T11:41:23.729Z,1023.89
2016-11-28T11:42:23.744Z,1023.93
2016-11-28T11:43:23.769Z,1023.93
2016-11-28T11:44:23.780Z,1023.98
2016-11-28T11:45:23.795Z,1023.97
2016-11-28T11:46:23.811Z,1023.93
2016-11-28T11:47:23.827Z,1023.96
2016-11-28T11:49:23.862Z,1023.94
2016-11-28T11:50:23.878Z,1023.98
2016-11-28T11:51:23.894Z,1024.02
2016-11-28T11:52:23.913Z,1024.06
2016-11-28T11:53:23.927Z,1024.02
2016-11-28T11:54:23.944Z,1023.99
2016-11-28T11:55:23.961Z,1024.02
2016-11-28T11:56:23.978Z,1024
2016-11-28T11:57:23.996Z,1024
2016-11-28T11:58:24.011Z,1024
2016-11-28T11:59:24.030Z,1024.09
2016-11-28T12:00:24.045Z,1024.07
2016-11-28T12:01:24.061Z,1024.07
2016-11-28T12:02:24.080Z,1024.06
2016-11-28T12:03:24.097Z,1024.08
2016-11-28T12:05:24.128Z,1024.06
2016-11-28T12:06:24.147Z,1024.07
2016-11-28T12:07:24.163Z,1024.09
2016-11-28T12:08:24.178Z,1024.07
2016-11-28T12:09:24.195Z,1024.13
2016-11-28T12:10:24.212Z,1024.13
2016-11-28T12:11:24.231Z,1024.13
2016-11-28T12:12:24.247Z,1024.06
2016-11-28T12:13:24.264Z,1024.07
2016-11-28T12:14:24.279Z,1024.04
2016-11-28T12:15:24.295Z,1024.05
2016-11-28T12:16:24.311Z,1024.1
2016-11-28T12:17:24.331Z,1024.14
2016-11-28T12:18:24.345Z,1024.15
2016-11-28T12:19:24.363Z,1024.12
2016-11-28T12:21:24.397Z,1024.17
2016-11-28T12:22:24.412Z,1024.24
2016-11-28T12:23:24.430Z,1024.23
2016-11-28T12:24:24.447Z,1024.18
2016-11-28T12:25:24.461Z,1024.22
2016-11-28T12:26:24.479Z,1024.26
2016-11-28T12:27:24.494Z,1024.24
2016-11-28T12:28:24.513Z,1024.28
2016-11-28T12:29:24.530Z,1024.26
2016-11-28T12:30:24.546Z,1024.29
2016-11-28T12:31:24.563Z,1024.31
2016-11-28T12:32:24.628Z,1024.31
2016-11-28T12:33:24.596Z,1024.35
2016-11-28T12:34:24.612Z,1024.34
2016-11-28T12:36:24.645Z,1024.36
2016-11-28T12:37:24.661Z,1024.37
2016-11-28T12:38:24.680Z,1024.39
2016-11-28T12:39:24.702Z,1024.42
2016-11-28T12:40:24.712Z,1024.4
2016-11-28T12:41:24.730Z,1024.37
2016-11-28T12:42:24.747Z,1024.44
2016-11-28T12:43:24.764Z,1024.41
2016-11-28T12:44:24.777Z,1024.43
2016-11-28T12:45:24.797Z,1024.44
2016-11-28T12:46:24.814Z,1024.43
2016-11-28T12:47:24.830Z,1024.42
2016-11-28T12:48:24.846Z,1024.42